createdAt,value
2019-04-05T00:02:19.289Z,8.15
2019-04-05T00:04:48.793Z,9.23
2019-04-05T00:07:17.201Z,9.53
2019-04-05T00:09:45.680Z,9.40
2019-04-05T00:12:14.123Z,9.37
2019-04-05T00:14:42.477Z,8.67
2019-04-05T00:17:10.863Z,9.73
2019-04-05T00:19:39.382Z,8.90
2019-04-05T00:22:07.773Z,9.03
2019-04-05T00:24:36.166Z,9.55
2019-04-05T00:27:04.605Z,9.53
2019-04-05T00:29:35.428Z,9.00
2019-04-05T00:32:03.754Z,9.03
2019-04-05T00:34:32.132Z,9.37
2019-04-05T00:37:00.472Z,8.80
2019-04-05T00:39:28.828Z,9.78
2019-04-05T00:41:58.415Z,9.33
2019-04-05T00:44:26.854Z,9.73
2019-04-05T00:46:55.286Z,9.33
2019-04-05T00:49:23.697Z,9.60
2019-04-05T00:51:52.158Z,9.67
2019-04-05T00:54:20.542Z,8.57
2019-04-05T00:56:48.978Z,9.28
2019-04-05T00:59:17.345Z,10.53
2019-04-05T01:01:45.889Z,9.97
2019-04-05T01:04:14.409Z,10.03
2019-04-05T01:06:42.810Z,9.97
2019-04-05T01:09:11.223Z,9.88
2019-04-05T01:11:39.601Z,9.47
2019-04-05T01:14:08.154Z,9.70
2019-04-05T01:16:36.670Z,10.18
2019-04-05T01:19:05.009Z,9.30
2019-04-05T01:21:36.923Z,10.93
2019-04-05T01:24:05.360Z,10.48
2019-04-05T01:26:33.760Z,11.10
2019-04-05T01:29:02.167Z,10.63
2019-04-05T01:31:30.603Z,10.00
2019-04-05T01:33:59.033Z,11.40
2019-04-05T01:36:27.488Z,11.53
2019-04-05T01:38:55.893Z,10.77
2019-04-05T01:41:25.538Z,10.68
2019-04-05T01:43:53.958Z,10.85
2019-04-05T01:46:22.337Z,10.93
2019-04-05T01:48:50.887Z,10.33
2019-04-05T01:51:19.264Z,10.72
2019-04-05T01:53:47.694Z,10.57
2019-04-05T01:56:16.090Z,10.73
2019-04-05T01:58:44.538Z,10.07
2019-04-05T02:01:12.955Z,10.70
2019-04-05T02:03:41.332Z,10.27
2019-04-05T02:06:09.746Z,10.23
2019-04-05T02:08:38.154Z,10.57
2019-04-05T02:11:06.570Z,10.40
2019-04-05T02:13:34.984Z,10.93
2019-04-05T02:16:06.507Z,10.07
2019-04-05T02:18:33.467Z,9.65
2019-04-05T02:21:01.887Z,10.85
2019-04-05T02:23:30.258Z,10.13
2019-04-05T02:25:58.738Z,11.12
2019-04-05T02:28:27.151Z,10.13
2019-04-05T02:30:55.683Z,11.43
2019-04-05T02:33:24.053Z,11.30
2019-04-05T02:35:52.442Z,10.73
2019-04-05T02:38:20.845Z,10.60
2019-04-05T02:40:49.231Z,10.08
2019-04-05T02:43:18.301Z,10.83
2019-04-05T02:45:46.993Z,10.95
2019-04-05T02:48:15.387Z,10.78
2019-04-05T02:50:46.587Z,10.30
2019-04-05T02:53:15.017Z,10.23
2019-04-05T02:55:43.462Z,11.03
2019-04-05T02:58:12.638Z,10.63
2019-04-05T03:00:41.485Z,11.78
2019-04-05T03:03:09.963Z,10.20
2019-04-05T03:05:38.497Z,10.47
2019-04-05T03:08:07.603Z,10.67
2019-04-05T03:11:06.058Z,11.20
2019-04-05T03:13:36.365Z,11.25
2019-04-05T03:16:06.826Z,10.80
2019-04-05T03:18:36.528Z,10.93
2019-04-05T03:21:06.567Z,10.72
2019-04-05T03:23:36.275Z,11.53
2019-04-05T03:26:05.264Z,11.10
2019-04-05T03:28:34.275Z,11.68
2019-04-05T03:31:02.734Z,11.00
2019-04-05T03:33:31.259Z,10.57
2019-04-05T03:35:59.608Z,10.85
2019-04-05T03:38:28.030Z,10.93
2019-04-05T03:40:56.527Z,10.53
2019-04-05T03:43:24.913Z,11.20
2019-04-05T03:45:53.361Z,11.63
2019-04-05T03:48:21.778Z,10.97
2019-04-05T03:50:50.280Z,11.93
2019-04-05T03:53:18.981Z,11.57
2019-04-05T03:55:47.356Z,12.00
2019-04-05T03:58:15.746Z,11.45
2019-04-05T04:00:44.153Z,12.53
2019-04-05T04:03:12.602Z,11.93
2019-04-05T04:05:41.385Z,11.73
2019-04-05T04:08:09.824Z,11.63
2019-04-05T04:10:38.243Z,11.37
2019-04-05T04:13:06.625Z,12.80
2019-04-05T04:15:35.082Z,12.10
2019-04-05T04:18:03.444Z,13.43
2019-04-05T04:20:48.910Z,22.97
2019-04-05T04:23:17.370Z,12.73
2019-04-05T04:25:45.914Z,14.53
2019-04-05T04:28:14.320Z,12.98
2019-04-05T04:30:42.734Z,12.03
2019-04-05T04:33:11.151Z,13.83
2019-04-05T04:35:39.529Z,20.63
2019-04-05T04:38:07.929Z,14.63
2019-04-05T04:40:36.817Z,15.60
2019-04-05T04:43:05.199Z,15.28
2019-04-05T04:45:33.536Z,13.65
2019-04-05T04:48:01.907Z,18.57
2019-04-05T04:50:30.368Z,24.00
2019-04-05T04:52:58.782Z,15.00
2019-04-05T04:55:27.206Z,21.27
2019-04-05T04:57:55.661Z,14.87
2019-04-05T05:00:24.058Z,16.03
2019-04-05T05:02:52.442Z,13.68
2019-04-05T05:05:20.867Z,13.60
2019-04-05T05:07:49.366Z,14.47
2019-04-05T05:10:17.773Z,19.03
2019-04-05T05:12:46.175Z,16.37
2019-04-05T05:15:14.712Z,16.95
2019-04-05T05:17:43.109Z,20.27
2019-04-05T05:20:11.455Z,23.35
2019-04-05T05:22:39.811Z,20.35
2019-04-05T05:25:08.239Z,18.92
2019-04-05T05:27:36.674Z,19.05
2019-04-05T05:30:09.534Z,18.62
2019-04-05T05:32:37.978Z,29.63
2019-04-05T05:35:07.047Z,19.15
2019-04-05T05:37:35.971Z,19.98
2019-04-05T05:40:06.730Z,22.90
2019-04-05T05:42:35.371Z,17.73
2019-04-05T05:45:07.343Z,17.92
2019-04-05T05:47:35.847Z,14.53
2019-04-05T05:50:06.613Z,14.67
2019-04-05T05:52:35.199Z,14.73
2019-04-05T05:55:04.985Z,15.10
2019-04-05T05:57:33.354Z,15.90
2019-04-05T06:00:01.749Z,15.20
2019-04-05T06:02:30.186Z,14.33
2019-04-05T06:04:58.592Z,14.85
2019-04-05T06:07:27.002Z,13.60
2019-04-05T06:09:55.426Z,13.43
2019-04-05T06:12:23.905Z,14.15
2019-04-05T06:14:52.329Z,14.40
2019-04-05T06:17:20.737Z,14.07
2019-04-05T06:19:49.249Z,12.73
2019-04-05T06:22:17.643Z,13.70
2019-04-05T06:24:46.066Z,13.20
2019-04-05T06:27:14.582Z,14.53
2019-04-05T06:29:42.957Z,13.70
2019-04-05T06:32:11.435Z,14.60
2019-04-05T06:34:39.854Z,17.10
2019-04-05T06:37:08.310Z,12.85
2019-04-05T06:39:36.771Z,11.78
2019-04-05T06:42:05.194Z,13.00
2019-04-05T06:44:33.594Z,11.85
2019-04-05T06:47:02.053Z,11.63
2019-04-05T06:49:31.818Z,12.23
2019-04-05T06:52:00.279Z,13.15
2019-04-05T06:54:28.682Z,13.43
2019-04-05T06:56:57.139Z,12.17
2019-04-05T06:59:25.553Z,12.83
2019-04-05T07:01:53.933Z,13.03
2019-04-05T07:04:22.321Z,12.68
2019-04-05T07:06:50.797Z,12.13
2019-04-05T07:09:19.260Z,12.73
2019-04-05T07:11:47.669Z,12.82
2019-04-05T07:14:16.116Z,12.57
2019-04-05T07:16:44.554Z,11.67
2019-04-05T07:19:12.930Z,11.07
2019-04-05T07:21:41.330Z,12.00
2019-04-05T07:24:09.754Z,12.47
2019-04-05T07:26:38.160Z,12.20
2019-04-05T07:29:06.585Z,12.13
2019-04-05T07:31:34.990Z,13.27
2019-04-05T07:34:03.370Z,13.47
2019-04-05T07:36:31.786Z,11.77
2019-04-05T07:39:00.208Z,11.40
2019-04-05T07:41:28.609Z,11.53
2019-04-05T07:43:57.025Z,11.53
2019-04-05T07:46:25.438Z,11.47
2019-04-05T07:48:53.849Z,11.33
2019-04-05T07:51:22.837Z,12.40
2019-04-05T07:53:51.383Z,11.05
2019-04-05T07:56:19.767Z,11.23
2019-04-05T07:58:48.181Z,12.30
2019-04-05T08:01:16.713Z,11.70
2019-04-05T08:03:45.296Z,12.75
2019-04-05T08:06:13.706Z,11.85
2019-04-05T08:08:51.519Z,12.00
2019-04-05T08:11:19.920Z,13.13
2019-04-05T08:13:48.478Z,11.93
2019-04-05T08:16:16.890Z,11.28
2019-04-05T08:18:56.949Z,12.60
2019-04-05T08:21:15.485Z,12.18
2019-04-05T08:23:43.940Z,11.88
2019-04-05T08:26:12.378Z,11.57
2019-04-05T08:28:40.819Z,13.70
2019-04-05T08:31:10.891Z,11.40
2019-04-05T08:33:39.277Z,11.25
2019-04-05T08:36:07.649Z,10.60
2019-04-05T08:38:36.070Z,11.10
2019-04-05T08:41:04.773Z,10.93
2019-04-05T08:43:33.319Z,10.98
2019-04-05T08:46:01.724Z,11.93
2019-04-05T08:48:30.317Z,10.90
2019-04-05T08:50:58.696Z,11.05
2019-04-05T08:53:27.106Z,10.30
2019-04-05T08:55:55.568Z,10.60
2019-04-05T08:58:33.229Z,10.43
2019-04-05T09:00:54.055Z,10.68
2019-04-05T09:03:22.541Z,11.33
2019-04-05T09:05:50.958Z,9.67
2019-04-05T09:08:21.388Z,11.60
2019-04-05T09:10:49.437Z,9.15
2019-04-05T09:13:17.955Z,10.23
2019-04-05T09:15:46.362Z,9.97
2019-04-05T09:18:14.850Z,9.40
2019-04-05T09:20:43.397Z,9.33
2019-04-05T09:23:11.805Z,9.33
2019-04-05T09:25:40.221Z,9.17
2019-04-05T09:28:08.671Z,9.83
2019-04-05T09:30:37.063Z,10.53
2019-04-05T09:33:05.457Z,9.67
2019-04-05T09:35:33.898Z,9.47
2019-04-05T09:38:02.270Z,11.40
2019-04-05T09:40:30.682Z,10.53
2019-04-05T09:42:59.082Z,9.00
2019-04-05T09:45:27.502Z,13.18
2019-04-05T09:47:55.916Z,10.80
2019-04-05T09:50:24.289Z,9.77
2019-04-05T09:52:52.704Z,10.00
2019-04-05T09:55:21.111Z,10.13
2019-04-05T09:57:49.437Z,9.50
2019-04-05T10:00:25.190Z,8.80
2019-04-05T10:02:53.573Z,10.08
2019-04-05T10:05:22.057Z,9.45
2019-04-05T10:07:55.433Z,9.13
2019-04-05T10:10:20.517Z,9.83
2019-04-05T10:12:48.921Z,9.50
2019-04-05T10:15:17.341Z,10.48
2019-04-05T10:17:45.845Z,9.93
2019-04-05T10:20:14.232Z,9.67
2019-04-05T10:22:42.599Z,9.08
2019-04-05T10:25:10.978Z,8.58
2019-04-05T10:27:39.390Z,9.08
2019-04-05T10:30:11.946Z,8.85
2019-04-05T10:32:40.393Z,13.70
2019-04-05T10:35:08.882Z,9.93
2019-04-05T10:37:37.297Z,9.83
2019-04-05T10:40:06.850Z,9.85
2019-04-05T10:42:36.413Z,9.00
2019-04-05T10:45:09.872Z,9.55
2019-04-05T10:47:38.299Z,9.48
2019-04-05T10:50:08.400Z,10.50
2019-04-05T10:52:37.038Z,9.53
2019-04-05T10:55:05.957Z,9.45
2019-04-05T10:57:34.337Z,9.58
2019-04-05T11:00:02.772Z,9.10
2019-04-05T11:02:31.175Z,9.40
2019-04-05T11:04:59.598Z,13.08
2019-04-05T11:07:28.109Z,8.55
2019-04-05T11:09:56.518Z,9.07
2019-04-05T11:12:24.927Z,8.75
2019-04-05T11:14:53.353Z,8.80
2019-04-05T11:17:21.766Z,9.25
2019-04-05T11:19:50.141Z,8.98
2019-04-05T11:22:20.975Z,9.25
2019-04-05T11:24:48.750Z,8.90
2019-04-05T11:27:17.175Z,9.20
2019-04-05T11:29:45.616Z,8.63
2019-04-05T11:32:14.027Z,9.10
2019-04-05T11:34:42.420Z,9.20
2019-04-05T11:37:10.843Z,8.63
2019-04-05T11:39:39.262Z,8.83
2019-04-05T11:42:07.651Z,9.10
2019-04-05T11:44:36.094Z,9.33
2019-04-05T11:47:04.525Z,9.50
2019-04-05T11:49:33.834Z,9.50
2019-04-05T11:52:02.317Z,8.80
2019-04-05T11:54:30.693Z,9.47
2019-04-05T11:56:59.211Z,8.50
2019-04-05T11:59:27.798Z,9.40
2019-04-05T12:02:06.844Z,9.13
2019-04-05T12:04:35.233Z,9.43
2019-04-05T12:07:03.781Z,8.73
2019-04-05T12:09:32.157Z,9.10
2019-04-05T12:12:00.566Z,8.80
2019-04-05T12:14:30.514Z,9.20
2019-04-05T12:16:59.106Z,8.63
2019-04-05T12:19:27.521Z,8.58
2019-04-05T12:21:55.924Z,8.90
2019-04-05T12:24:24.338Z,8.03
2019-04-05T12:26:52.729Z,9.83
2019-04-05T12:29:21.139Z,9.00
2019-04-05T12:31:49.608Z,9.00
2019-04-05T12:34:21.532Z,9.23
2019-04-05T12:36:48.104Z,9.58
2019-04-05T12:39:16.599Z,8.00
2019-04-05T12:41:45.129Z,8.60
2019-04-05T12:44:15.151Z,9.13
2019-04-05T12:46:45.854Z,7.58
2019-04-05T12:49:15.271Z,7.92
2019-04-05T12:51:45.521Z,10.35
2019-04-05T12:54:14.295Z,7.85
2019-04-05T12:56:42.692Z,7.20
2019-04-05T12:59:11.075Z,7.25
2019-04-05T13:01:39.493Z,9.03
2019-04-05T13:04:07.963Z,5.97
2019-04-05T13:06:36.330Z,6.67
2019-04-05T13:09:08.555Z,9.73
2019-04-05T13:11:36.974Z,9.30
2019-04-05T13:14:05.380Z,6.72
2019-04-05T13:16:33.799Z,7.70
2019-04-05T13:19:02.258Z,10.90
2019-04-05T13:21:32.931Z,8.33
2019-04-05T13:24:00.718Z,10.35
2019-04-05T13:26:29.096Z,6.95
2019-04-05T13:28:57.573Z,7.30
2019-04-05T13:31:25.992Z,6.83
2019-04-05T13:33:55.158Z,6.43
2019-04-05T13:36:24.006Z,6.83
2019-04-05T13:38:54.963Z,6.50
2019-04-05T13:41:23.332Z,5.87
2019-04-05T13:43:51.748Z,6.90
2019-04-05T13:46:22.670Z,8.13
2019-04-05T13:48:50.233Z,9.48
2019-04-05T13:51:27.775Z,7.83
2019-04-05T13:53:48.738Z,18.82
2019-04-05T13:56:17.138Z,7.12
2019-04-05T13:58:46.919Z,6.90
2019-04-05T14:01:15.597Z,7.15
2019-04-05T14:03:44.134Z,7.03
2019-04-05T14:06:12.529Z,6.97
2019-04-05T14:08:41.895Z,14.15
2019-04-05T14:11:11.079Z,7.97
2019-04-05T14:13:42.661Z,7.33
2019-04-05T14:16:12.255Z,7.35
2019-04-05T14:18:39.597Z,10.85
2019-04-05T14:21:07.998Z,8.90
2019-04-05T14:23:36.414Z,15.85
2019-04-05T14:26:04.868Z,51.18
2019-04-05T14:28:34.144Z,7.30
2019-04-05T14:31:03.438Z,7.65
2019-04-05T14:33:31.832Z,9.13
2019-04-05T14:36:00.296Z,7.08
2019-04-05T14:38:31.168Z,7.40
2019-04-05T14:40:58.764Z,8.20
2019-04-05T14:43:27.142Z,6.35
2019-04-05T14:45:55.606Z,7.22
2019-04-05T14:48:27.445Z,7.55
2019-04-05T14:50:55.573Z,7.37
2019-04-05T14:53:24.223Z,8.58
2019-04-05T14:55:52.651Z,7.45
2019-04-05T14:58:21.078Z,8.48
2019-04-05T15:00:49.524Z,7.72
2019-04-05T15:03:18.381Z,7.20
2019-04-05T15:05:46.813Z,7.90
2019-04-05T15:08:15.206Z,11.57
2019-04-05T15:10:43.601Z,9.73
2019-04-05T15:13:12.051Z,7.92
2019-04-05T15:15:40.458Z,11.00
2019-04-05T15:18:08.880Z,10.18
2019-04-05T15:20:37.290Z,7.97
2019-04-05T15:23:05.675Z,15.03
2019-04-05T15:25:34.214Z,8.98
2019-04-05T15:28:02.611Z,7.73
2019-04-05T15:30:31.019Z,7.78
2019-04-05T15:33:01.046Z,7.00
2019-04-05T15:35:29.467Z,7.70
2019-04-05T15:38:01.304Z,7.55
2019-04-05T15:40:28.765Z,7.70
2019-04-05T15:42:58.134Z,7.72
2019-04-05T15:45:26.513Z,6.70
2019-04-05T15:47:54.930Z,8.00
2019-04-05T15:50:23.370Z,7.35
2019-04-05T15:52:51.789Z,9.28
2019-04-05T15:55:20.169Z,9.75
2019-04-05T15:57:48.594Z,8.48
2019-04-05T16:00:18.783Z,7.83
2019-04-05T16:02:47.216Z,11.85
2019-04-05T16:05:15.723Z,8.60
2019-04-05T16:07:44.316Z,8.07
2019-04-05T16:10:12.732Z,7.83
2019-04-05T16:12:41.130Z,8.20
2019-04-05T16:15:09.666Z,7.67
2019-04-05T16:17:38.156Z,7.10
2019-04-05T16:20:08.974Z,6.72
2019-04-05T16:22:37.376Z,7.00
2019-04-05T16:25:05.970Z,8.15
2019-04-05T16:27:34.351Z,6.83
2019-04-05T16:30:02.912Z,6.97
2019-04-05T16:32:31.333Z,7.37
2019-04-05T16:34:59.763Z,8.08
2019-04-05T16:37:28.159Z,8.00
2019-04-05T16:39:56.542Z,7.20
2019-04-05T16:42:24.954Z,7.50
2019-04-05T16:44:53.361Z,7.28
2019-04-05T16:47:21.779Z,7.95
2019-04-05T16:49:50.277Z,10.90
2019-04-05T16:52:18.659Z,8.48
2019-04-05T16:54:47.031Z,12.53
2019-04-05T16:57:15.603Z,8.80
2019-04-05T16:59:43.987Z,11.70
2019-04-05T17:02:12.397Z,13.83
2019-04-05T17:04:40.845Z,13.62
2019-04-05T17:07:09.270Z,12.93
2019-04-05T17:09:37.706Z,9.18
2019-04-05T17:12:06.133Z,11.50
2019-04-05T17:14:34.531Z,12.10
2019-04-05T17:17:02.914Z,15.05
2019-04-05T17:19:31.407Z,14.60
2019-04-05T17:21:59.875Z,15.13
2019-04-05T17:24:28.281Z,12.40
2019-04-05T17:26:56.854Z,13.55
2019-04-05T17:29:25.225Z,10.43
2019-04-05T17:31:53.645Z,11.38
2019-04-05T17:34:22.063Z,15.28
2019-04-05T17:36:50.492Z,13.05
2019-04-05T17:39:18.906Z,17.40
2019-04-05T17:41:47.313Z,15.30
2019-04-05T17:44:15.693Z,11.05
2019-04-05T17:46:44.177Z,13.18
2019-04-05T17:49:12.578Z,12.33
2019-04-05T17:51:40.961Z,11.12
2019-04-05T17:54:09.315Z,20.68
2019-04-05T17:56:37.698Z,13.15
2019-04-05T17:59:06.114Z,15.45
2019-04-05T18:01:34.630Z,11.53
2019-04-05T18:04:03.029Z,10.67
2019-04-05T18:06:31.447Z,10.48
2019-04-05T18:08:59.866Z,11.08
2019-04-05T18:11:28.239Z,10.63
2019-04-05T18:13:57.625Z,11.78
2019-04-05T18:16:26.097Z,11.12
2019-04-05T18:18:54.495Z,11.75
2019-04-05T18:21:23.021Z,12.13
2019-04-05T18:23:51.413Z,13.60
2019-04-05T18:26:19.879Z,17.82
2019-04-05T18:28:48.340Z,19.47
2019-04-05T18:31:16.774Z,31.40
2019-04-05T18:33:45.143Z,29.70
2019-04-05T18:36:13.579Z,24.12
2019-04-05T18:38:42.007Z,53.85
2019-04-05T18:41:10.425Z,57.40
2019-04-05T18:43:38.842Z,76.15
2019-04-05T18:46:07.254Z,77.58
2019-04-05T18:48:35.638Z,74.95
2019-04-05T18:51:04.025Z,67.00
2019-04-05T18:53:37.940Z,41.33
2019-04-05T18:56:02.495Z,34.90
2019-04-05T18:58:30.870Z,21.30
2019-04-05T19:00:59.291Z,19.67
2019-04-05T19:03:27.685Z,25.70
2019-04-05T19:05:56.123Z,77.15
2019-04-05T19:08:24.526Z,24.90
2019-04-05T19:10:52.939Z,61.23
2019-04-05T19:13:21.350Z,42.33
2019-04-05T19:15:49.762Z,40.80
2019-04-05T19:18:18.193Z,33.13
2019-04-05T19:20:46.574Z,29.12
2019-04-05T19:23:14.997Z,27.02
2019-04-05T19:25:46.387Z,30.65
2019-04-05T19:28:13.526Z,30.27
2019-04-05T19:50:42.923Z,20.20
2019-04-05T19:53:11.317Z,20.55
2019-04-05T19:55:39.701Z,19.50
2019-04-05T19:58:08.148Z,32.67
2019-04-05T20:00:36.576Z,19.73
2019-04-05T20:03:05.097Z,18.33
2019-04-05T20:05:33.555Z,20.13
2019-04-05T20:08:02.004Z,34.75
2019-04-05T20:10:30.470Z,18.80
2019-04-05T20:12:58.913Z,19.52
2019-04-05T20:15:27.288Z,25.50
2019-04-05T20:17:55.721Z,23.20
2019-04-05T20:20:24.158Z,17.62
2019-04-05T20:22:52.558Z,17.23
2019-04-05T20:25:20.975Z,18.67
2019-04-05T20:27:49.396Z,22.98
2019-04-05T20:30:17.968Z,21.27
2019-04-05T20:32:46.405Z,18.87
2019-04-05T20:35:14.918Z,19.45
2019-04-05T20:37:43.280Z,19.43
2019-04-05T20:40:11.657Z,19.15
2019-04-05T20:42:40.033Z,21.35
2019-04-05T20:45:08.426Z,22.48
2019-04-05T20:47:36.805Z,22.25
2019-04-05T20:50:06.746Z,21.42
2019-04-05T20:52:35.155Z,19.67
2019-04-05T20:55:04.471Z,17.45
2019-04-05T20:57:32.990Z,14.87
2019-04-05T21:00:01.484Z,15.87
2019-04-05T21:02:29.896Z,14.17
2019-04-05T21:04:58.297Z,16.77
2019-04-05T21:07:26.669Z,22.60
2019-04-05T21:09:55.057Z,18.62
2019-04-05T21:12:23.474Z,13.80
2019-04-05T21:14:51.886Z,18.82
2019-04-05T21:17:20.285Z,19.92
2019-04-05T21:19:48.682Z,15.57
2019-04-05T21:22:17.188Z,12.80
2019-04-05T21:24:45.682Z,20.00
2019-04-05T21:27:14.105Z,18.23
2019-04-05T21:29:42.509Z,19.42
2019-04-05T21:32:10.924Z,17.70
2019-04-05T21:34:39.334Z,18.95
2019-04-05T21:37:07.781Z,19.17
2019-04-05T21:39:36.184Z,13.83
2019-04-05T21:42:04.589Z,18.65
2019-04-05T21:44:33.002Z,19.10
2019-04-05T21:47:01.401Z,17.70
2019-04-05T21:49:29.783Z,13.15
2019-04-05T21:51:58.199Z,11.75
2019-04-05T21:54:26.573Z,11.87
2019-04-05T21:56:54.985Z,14.58
2019-04-05T21:59:23.424Z,12.80
2019-04-05T22:01:51.809Z,12.90
2019-04-05T22:04:20.247Z,13.48
2019-04-05T22:06:48.684Z,12.13
2019-04-05T22:09:17.055Z,14.63
2019-04-05T22:11:45.441Z,12.53
2019-04-05T22:14:13.829Z,13.60
2019-04-05T22:16:42.302Z,14.83
2019-04-05T22:19:10.673Z,13.20
2019-04-05T22:21:39.073Z,14.00
2019-04-05T22:24:07.476Z,13.50
2019-04-05T22:26:35.950Z,12.20
2019-04-05T22:29:04.354Z,13.07
2019-04-05T22:31:32.725Z,12.60
2019-04-05T22:34:01.189Z,13.68
2019-04-05T22:36:29.557Z,13.10
2019-04-05T22:38:57.968Z,14.35
2019-04-05T22:41:26.350Z,13.90
2019-04-05T22:43:54.794Z,13.98
2019-04-05T22:46:23.218Z,13.97
2019-04-05T22:48:51.589Z,13.75
2019-04-05T22:51:20.079Z,16.85
2019-04-05T22:53:48.447Z,15.90
2019-04-05T22:56:16.831Z,17.05
2019-04-05T22:58:45.284Z,15.78
2019-04-05T23:01:13.644Z,15.83
2019-04-05T23:03:42.104Z,17.35
2019-04-05T23:06:10.569Z,14.77
2019-04-05T23:08:38.953Z,15.50
2019-04-05T23:11:07.379Z,15.63
2019-04-05T23:13:35.749Z,15.90
2019-04-05T23:16:04.239Z,15.93
2019-04-05T23:18:32.643Z,15.77
2019-04-05T23:21:01.078Z,17.43
2019-04-05T23:23:29.452Z,15.63
2019-04-05T23:25:57.864Z,16.97
2019-04-05T23:28:26.271Z,15.00
2019-04-05T23:30:54.681Z,14.78
2019-04-05T23:33:23.126Z,16.20
2019-04-05T23:35:51.456Z,14.68
2019-04-05T23:38:19.819Z,14.63
2019-04-05T23:40:48.222Z,14.18
2019-04-05T23:43:16.599Z,16.47
2019-04-05T23:45:45.023Z,12.90
2019-04-05T23:48:13.432Z,13.60
2019-04-05T23:50:41.842Z,12.60
2019-04-05T23:53:10.218Z,14.70
2019-04-05T23:55:38.738Z,17.05
2019-04-05T23:58:07.104Z,12.43
